createdAt,value
2022-08-23T00:03:04.038Z,100.00
2022-08-23T00:06:10.714Z,99.37
2022-08-23T00:09:15.421Z,99.44
2022-08-23T00:12:23.572Z,99.88
2022-08-23T00:15:28.233Z,100.00
2022-08-23T00:18:32.990Z,100.00
2022-08-23T00:21:39.631Z,100.00
2022-08-23T00:24:44.584Z,99.96
2022-08-23T00:27:49.179Z,99.28
2022-08-23T00:30:54.221Z,98.75
2022-08-23T00:33:58.800Z,97.57
2022-08-23T00:37:04.152Z,97.85
2022-08-23T00:40:12.071Z,97.66
2022-08-23T00:43:49.388Z,97.48
2022-08-23T00:47:15.746Z,99.04
2022-08-23T00:50:29.610Z,98.26
2022-08-23T00:53:38.600Z,99.19
2022-08-23T00:56:44.264Z,99.65
2022-08-23T00:59:48.633Z,100.00
2022-08-23T01:02:54.817Z,100.00
2022-08-23T01:06:17.819Z,99.09
2022-08-23T01:09:23.591Z,98.86
2022-08-23T01:12:37.390Z,97.59
2022-08-23T01:15:49.684Z,99.24
2022-08-23T01:18:56.887Z,100.00
2022-08-23T01:22:13.959Z,100.00
2022-08-23T01:25:22.706Z,99.38
2022-08-23T01:28:27.514Z,98.71
2022-08-23T01:31:32.715Z,97.81
2022-08-23T01:34:38.249Z,98.28
2022-08-23T01:37:50.264Z,98.68
2022-08-23T01:40:55.089Z,98.65
2022-08-23T01:43:59.993Z,99.04
2022-08-23T01:47:07.040Z,98.91
2022-08-23T01:50:13.852Z,98.83
2022-08-23T01:53:18.561Z,99.16
2022-08-23T01:56:39.109Z,98.13
2022-08-23T01:59:46.432Z,97.60
2022-08-23T02:02:51.306Z,98.12
2022-08-23T02:05:56.248Z,97.53
2022-08-23T02:09:04.635Z,97.06
2022-08-23T02:12:13.541Z,97.49
2022-08-23T02:15:18.898Z,98.33
2022-08-23T02:18:24.622Z,97.79
2022-08-23T02:21:34.031Z,96.76
2022-08-23T02:24:45.675Z,97.19
2022-08-23T02:27:50.567Z,98.35
2022-08-23T02:30:55.410Z,98.29
2022-08-23T02:34:01.399Z,98.93
2022-08-23T02:37:10.341Z,98.59
2022-08-23T02:40:15.005Z,97.86
2022-08-23T02:43:19.701Z,97.97
2022-08-23T02:46:25.463Z,98.12
2022-08-23T02:49:31.875Z,98.75
2022-08-23T02:52:37.424Z,98.23
2022-08-23T02:55:41.581Z,100.00
2022-08-23T02:58:54.469Z,99.60
2022-08-23T03:02:01.035Z,100.00
2022-08-23T03:05:13.810Z,99.88
2022-08-23T03:08:19.760Z,99.73
2022-08-23T03:11:26.557Z,100.00
2022-08-23T03:14:31.266Z,99.74
2022-08-23T03:17:37.007Z,100.00
2022-08-23T03:20:45.650Z,100.00
2022-08-23T03:23:51.722Z,100.00
2022-08-23T03:26:56.794Z,100.00
2022-08-23T03:30:01.456Z,100.00
2022-08-23T03:33:08.034Z,100.00
2022-08-23T03:36:14.192Z,100.00
2022-08-23T03:39:19.021Z,100.00
2022-08-23T03:42:24.136Z,100.00
2022-08-23T03:45:35.916Z,98.95
2022-08-23T03:48:40.603Z,98.99
2022-08-23T03:51:45.324Z,99.57
2022-08-23T03:54:51.221Z,98.11
2022-08-23T03:57:56.269Z,99.79
2022-08-23T04:01:00.825Z,100.00
2022-08-23T04:04:06.163Z,100.00
2022-08-23T04:07:21.550Z,99.64
2022-08-23T04:10:30.186Z,100.00
2022-08-23T04:13:36.997Z,99.89
2022-08-23T04:16:42.692Z,99.62
2022-08-23T04:25:58.752Z,98.41
2022-08-23T04:29:04.050Z,100.00
2022-08-23T04:32:12.822Z,100.00
2022-08-23T04:35:18.411Z,100.00
2022-08-23T04:38:25.028Z,100.00
2022-08-23T04:41:54.897Z,100.00
2022-08-23T04:45:00.158Z,100.00
2022-08-23T04:48:06.496Z,100.00
2022-08-23T04:51:18.786Z,100.00
2022-08-23T04:54:24.215Z,100.00
2022-08-23T04:57:52.331Z,100.00
2022-08-23T05:01:05.746Z,100.00
2022-08-23T05:04:11.580Z,100.00
2022-08-23T05:07:17.624Z,100.00
2022-08-23T05:10:22.580Z,100.00
2022-08-23T05:13:31.188Z,100.00
2022-08-23T05:16:41.563Z,100.00
2022-08-23T05:19:47.390Z,100.00
2022-08-23T05:22:52.973Z,100.00
2022-08-23T05:26:03.369Z,100.00
2022-08-23T05:29:14.666Z,100.00
2022-08-23T05:32:23.875Z,100.00
2022-08-23T05:35:28.420Z,100.00
2022-08-23T05:38:33.731Z,100.00
2022-08-23T05:41:39.211Z,100.00
2022-08-23T05:44:48.435Z,100.00
2022-08-23T05:47:55.770Z,100.00
2022-08-23T05:51:15.879Z,100.00
2022-08-23T05:54:21.250Z,100.00
2022-08-23T05:57:41.515Z,100.00
2022-08-23T06:00:46.349Z,100.00
2022-08-23T06:03:52.257Z,100.00
2022-08-23T06:06:59.644Z,100.00
2022-08-23T06:10:06.409Z,100.00
2022-08-23T06:13:11.265Z,100.00
2022-08-23T06:16:17.617Z,100.00
2022-08-23T06:19:23.687Z,100.00
2022-08-23T06:22:48.040Z,100.00
2022-08-23T06:25:52.644Z,100.00
2022-08-23T06:29:03.395Z,100.00
2022-08-23T06:32:09.191Z,99.59
2022-08-23T06:35:37.594Z,99.76
2022-08-23T06:38:58.057Z,99.16
2022-08-23T06:42:41.748Z,99.54
2022-08-23T06:45:50.202Z,99.77
2022-08-23T06:49:01.642Z,97.97
2022-08-23T06:52:06.598Z,97.98
2022-08-23T06:55:34.365Z,97.82
2022-08-23T06:58:54.919Z,97.83
2022-08-23T07:02:11.318Z,97.78
2022-08-23T07:05:33.963Z,97.80
2022-08-23T07:09:05.792Z,96.90
2022-08-23T07:12:11.821Z,96.52
2022-08-23T07:15:19.871Z,95.74
2022-08-23T07:18:24.510Z,96.02
2022-08-23T07:21:29.425Z,96.17
2022-08-23T07:24:34.777Z,96.00
2022-08-23T07:27:40.647Z,96.12
2022-08-23T07:30:46.553Z,95.82
2022-08-23T07:33:52.729Z,95.58
2022-08-23T07:36:59.282Z,94.48
2022-08-23T07:40:04.262Z,95.84
2022-08-23T07:43:10.408Z,95.40
2022-08-23T07:46:15.544Z,95.75
2022-08-23T07:49:21.510Z,95.39
2022-08-23T07:52:27.415Z,94.69
2022-08-23T07:55:32.316Z,94.21
2022-08-23T07:58:50.976Z,93.96
2022-08-23T08:02:12.711Z,94.35
2022-08-23T08:05:21.463Z,91.95
2022-08-23T08:08:27.852Z,93.58
2022-08-23T08:11:35.470Z,94.85
2022-08-23T08:14:43.184Z,95.89
2022-08-23T08:17:51.677Z,96.47
2022-08-23T08:20:56.347Z,97.11
2022-08-23T08:24:23.767Z,97.24
2022-08-23T08:27:33.990Z,97.33
2022-08-23T08:30:40.709Z,98.16
2022-08-23T08:33:45.529Z,97.91
2022-08-23T08:36:55.442Z,98.49
2022-08-23T08:40:02.907Z,99.19
2022-08-23T08:43:32.103Z,98.98
2022-08-23T08:46:48.863Z,97.94
2022-08-23T08:50:09.820Z,96.81
2022-08-23T08:53:38.964Z,95.55
2022-08-23T08:56:54.943Z,97.06
2022-08-23T09:00:15.707Z,94.24
2022-08-23T09:03:22.798Z,93.42
2022-08-23T09:07:22.590Z,94.79
2022-08-23T09:10:41.132Z,94.42
2022-08-23T09:13:47.278Z,94.38
2022-08-23T09:17:05.550Z,94.38
2022-08-23T09:20:11.752Z,93.58
2022-08-23T09:23:26.268Z,92.36
2022-08-23T09:26:33.971Z,91.43
2022-08-23T09:29:41.478Z,92.80
2022-08-23T09:32:47.916Z,90.42
2022-08-23T09:36:29.552Z,90.27
2022-08-23T09:39:40.321Z,90.98
2022-08-23T09:43:05.702Z,94.39
2022-08-23T09:46:11.235Z,96.53
2022-08-23T09:49:31.736Z,98.37
2022-08-23T09:52:50.101Z,99.49
2022-08-23T09:55:58.840Z,99.57
2022-08-23T09:59:03.768Z,100.00
2022-08-23T10:02:27.511Z,100.00
2022-08-23T10:05:42.106Z,100.00
2022-08-23T10:08:56.999Z,100.00
2022-08-23T10:12:04.564Z,100.00
2022-08-23T10:15:12.805Z,100.00
2022-08-23T10:18:27.238Z,100.00
2022-08-23T10:21:48.138Z,100.00
2022-08-23T10:25:05.523Z,100.00
2022-08-23T10:28:42.911Z,100.00
2022-08-23T10:31:59.745Z,100.00
2022-08-23T10:35:30.203Z,100.00
2022-08-23T10:38:46.520Z,100.00
2022-08-23T10:42:12.506Z,100.00
2022-08-23T10:45:27.518Z,100.00
2022-08-23T10:49:01.554Z,100.00
2022-08-23T10:52:12.184Z,100.00
2022-08-23T10:55:36.890Z,100.00
2022-08-23T10:58:47.929Z,100.00
2022-08-23T11:02:18.051Z,99.98
2022-08-23T11:05:31.976Z,100.00
2022-08-23T11:08:47.946Z,100.00
2022-08-23T11:12:20.643Z,100.00
2022-08-23T11:15:35.495Z,100.00
2022-08-23T11:18:51.431Z,99.94
2022-08-23T11:22:55.277Z,99.15
2022-08-23T11:26:00.504Z,99.89
2022-08-23T11:29:08.342Z,99.66
2022-08-23T11:32:29.982Z,99.29
2022-08-23T11:35:54.081Z,99.54
2022-08-23T11:39:07.696Z,98.82
2022-08-23T11:42:12.831Z,98.92
2022-08-23T11:45:42.660Z,97.88
2022-08-23T11:48:57.020Z,97.83
2022-08-23T11:52:13.390Z,97.92
2022-08-23T11:55:24.401Z,97.78
2022-08-23T11:58:43.729Z,95.59
2022-08-23T12:01:48.512Z,97.38
2022-08-23T12:04:56.347Z,96.60
2022-08-23T12:08:06.890Z,95.92
2022-08-23T12:11:12.503Z,96.03
2022-08-23T12:14:34.292Z,93.46
2022-08-23T12:17:42.656Z,96.08
2022-08-23T12:20:49.234Z,96.48
2022-08-23T12:24:01.310Z,96.91
2022-08-23T12:27:31.011Z,96.19
2022-08-23T12:31:07.816Z,97.49
2022-08-23T12:34:19.406Z,97.71
2022-08-23T12:37:33.376Z,98.13
2022-08-23T12:40:42.861Z,97.95
2022-08-23T12:44:03.214Z,96.62
2022-08-23T12:47:21.910Z,97.58
2022-08-23T12:50:40.579Z,97.58
2022-08-23T12:53:46.511Z,98.14
2022-08-23T12:56:55.171Z,97.67
2022-08-23T13:00:25.871Z,97.92
2022-08-23T13:03:39.862Z,97.99
2022-08-23T13:06:51.858Z,97.22
2022-08-23T13:09:57.586Z,97.62
2022-08-23T13:13:02.610Z,97.42
2022-08-23T13:16:30.080Z,98.16
2022-08-23T13:19:34.912Z,98.29
2022-08-23T13:22:56.138Z,97.86
2022-08-23T13:26:27.033Z,97.84
2022-08-23T13:29:32.447Z,98.03
2022-08-23T13:32:44.390Z,97.79
2022-08-23T13:35:51.915Z,97.75
2022-08-23T13:38:57.212Z,98.70
2022-08-23T13:42:02.087Z,98.40
2022-08-23T13:45:15.026Z,98.68
2022-08-23T13:48:31.842Z,98.18
2022-08-23T13:51:41.062Z,99.19
2022-08-23T13:54:50.743Z,98.99
2022-08-23T13:57:59.739Z,99.13
2022-08-23T14:01:18.649Z,98.93
2022-08-23T14:04:23.563Z,99.18
2022-08-23T14:07:28.125Z,98.98
2022-08-23T14:10:32.641Z,99.33
2022-08-23T14:13:38.239Z,99.71
2022-08-23T14:16:43.266Z,100.00
2022-08-23T14:20:32.281Z,100.00
2022-08-23T14:23:13.491Z,100.00
2022-08-23T14:26:20.851Z,100.00
2022-08-23T14:29:29.551Z,100.00
2022-08-23T14:32:39.511Z,100.00
2022-08-23T14:35:45.324Z,100.00
2022-08-23T14:38:53.695Z,100.00
2022-08-23T14:41:59.240Z,100.00
2022-08-23T14:45:03.959Z,100.00
2022-08-23T14:48:08.702Z,100.00
2022-08-23T14:51:35.708Z,100.00
2022-08-23T14:54:43.058Z,100.00
2022-08-23T14:57:52.641Z,100.00
2022-08-23T15:00:57.562Z,100.00
2022-08-23T15:04:08.249Z,99.23
2022-08-23T15:07:20.168Z,99.43
2022-08-23T15:13:55.494Z,100.00
2022-08-23T15:17:04.076Z,99.13
2022-08-23T15:20:08.744Z,99.35
2022-08-23T15:23:13.289Z,99.54
2022-08-23T15:26:22.959Z,99.54
2022-08-23T15:29:29.031Z,100.00
2022-08-23T15:32:33.761Z,100.00
2022-08-23T15:35:49.863Z,99.85
2022-08-23T15:38:55.295Z,99.58
2022-08-23T15:42:00.144Z,99.98
2022-08-23T15:45:06.048Z,99.65
2022-08-23T15:48:22.953Z,100.00
2022-08-23T15:51:27.616Z,100.00
2022-08-23T15:54:32.588Z,100.00
2022-08-23T15:57:46.856Z,100.00
2022-08-23T16:00:52.020Z,99.97
2022-08-23T16:03:57.053Z,100.00
2022-08-23T16:07:02.049Z,100.00
2022-08-23T16:10:08.105Z,100.00
2022-08-23T16:13:12.988Z,100.00
2022-08-23T16:16:30.310Z,100.00
2022-08-23T16:19:35.001Z,100.00
2022-08-23T16:22:40.639Z,100.00
2022-08-23T16:25:45.263Z,100.00
2022-08-23T16:28:52.720Z,100.00
2022-08-23T16:31:57.308Z,100.00
2022-08-23T16:35:02.003Z,100.00
2022-08-23T16:38:06.874Z,99.95
2022-08-23T16:41:12.281Z,100.00
2022-08-23T16:44:16.913Z,99.69
2022-08-23T16:47:21.792Z,99.22
2022-08-23T16:50:26.578Z,99.24
2022-08-23T16:53:31.373Z,100.00
2022-08-23T16:56:37.546Z,99.53
2022-08-23T16:59:41.979Z,100.00
2022-08-23T17:02:46.585Z,100.00
2022-08-23T17:05:51.309Z,100.00
2022-08-23T17:08:56.040Z,100.00
2022-08-23T17:12:00.624Z,100.00
2022-08-23T17:15:08.140Z,100.00
2022-08-23T17:18:12.912Z,100.00
2022-08-23T17:21:17.549Z,100.00
2022-08-23T17:24:22.135Z,100.00
2022-08-23T17:27:26.973Z,100.00
2022-08-23T17:30:32.028Z,100.00
2022-08-23T17:33:36.454Z,100.00
2022-08-23T17:36:55.693Z,100.00
2022-08-23T17:40:00.515Z,100.00
2022-08-23T17:43:06.372Z,100.00
2022-08-23T17:46:11.208Z,100.00
2022-08-23T17:49:17.404Z,100.00
2022-08-23T17:52:21.974Z,100.00
2022-08-23T17:55:26.671Z,100.00
2022-08-23T17:58:34.256Z,100.00
2022-08-23T18:01:39.360Z,100.00
2022-08-23T18:04:43.920Z,100.00
2022-08-23T18:07:48.414Z,100.00
2022-08-23T18:10:52.815Z,100.00
2022-08-23T18:13:57.533Z,100.00
2022-08-23T18:17:02.819Z,99.75
2022-08-23T18:20:12.875Z,99.48
2022-08-23T18:23:19.235Z,98.93
2022-08-23T18:26:43.131Z,99.30
2022-08-23T18:29:51.619Z,99.96
2022-08-23T18:32:56.696Z,98.53
2022-08-23T18:36:01.338Z,99.27
2022-08-23T18:39:07.616Z,99.44
2022-08-23T18:42:17.923Z,99.08
2022-08-23T18:45:25.278Z,99.11
2022-08-23T18:48:30.391Z,98.22
2022-08-23T18:51:35.423Z,97.85
2022-08-23T18:54:41.112Z,97.12
2022-08-23T18:57:46.475Z,97.33
2022-08-23T19:00:52.105Z,96.46
2022-08-23T19:03:58.770Z,95.76
2022-08-23T19:07:04.427Z,96.99
2022-08-23T19:10:08.891Z,98.24
2022-08-23T19:13:16.183Z,98.02
2022-08-23T19:16:25.167Z,97.94
2022-08-23T19:19:29.878Z,96.53
2022-08-23T19:22:34.735Z,97.08
2022-08-23T19:25:40.372Z,96.95
2022-08-23T19:28:44.544Z,96.71
2022-08-23T19:31:52.429Z,97.73
2022-08-23T19:34:56.978Z,98.04
2022-08-23T19:38:02.029Z,97.52
2022-08-23T19:41:07.454Z,97.27
2022-08-23T19:44:12.814Z,97.29
2022-08-23T19:47:20.664Z,96.32
2022-08-23T19:50:30.350Z,97.46
2022-08-23T19:53:36.037Z,96.96
2022-08-23T19:56:43.400Z,97.85
2022-08-23T19:59:50.008Z,100.00
2022-08-23T20:02:54.961Z,100.00
2022-08-23T20:06:00.063Z,99.80
2022-08-23T20:09:06.565Z,99.05
2022-08-23T20:12:12.454Z,97.57
2022-08-23T20:15:17.444Z,97.76
2022-08-23T20:18:21.772Z,99.00
2022-08-23T20:21:27.212Z,97.98
2022-08-23T20:24:51.006Z,96.58
2022-08-23T20:28:05.846Z,95.98
2022-08-23T20:31:24.534Z,95.48
2022-08-23T20:34:31.331Z,95.86
2022-08-23T20:37:36.484Z,95.66
2022-08-23T20:40:41.036Z,96.75
2022-08-23T20:43:50.213Z,98.00
2022-08-23T20:46:57.661Z,98.92
2022-08-23T20:50:05.914Z,98.40
2022-08-23T20:53:12.825Z,100.00
2022-08-23T20:56:18.524Z,100.00
2022-08-23T20:59:25.135Z,100.00
2022-08-23T21:02:29.936Z,100.00
2022-08-23T21:05:35.112Z,100.00
2022-08-23T21:08:43.395Z,100.00
2022-08-23T21:11:58.833Z,99.03
2022-08-23T21:15:04.502Z,98.51
2022-08-23T21:18:12.226Z,98.43
2022-08-23T21:21:21.391Z,99.10
2022-08-23T21:24:27.193Z,99.70
2022-08-23T21:27:32.215Z,95.89
2022-08-23T21:30:37.383Z,96.20
2022-08-23T21:33:43.744Z,98.26
2022-08-23T21:36:48.747Z,100.00
2022-08-23T21:39:54.111Z,99.34
2022-08-23T21:42:59.093Z,100.00
2022-08-23T21:46:03.416Z,99.08
2022-08-23T21:49:08.744Z,100.00
2022-08-23T21:52:16.663Z,97.99
2022-08-23T21:55:21.613Z,96.75
2022-08-23T21:58:26.469Z,95.18
2022-08-23T22:01:35.088Z,97.34
2022-08-23T22:04:39.925Z,96.02
2022-08-23T22:07:47.517Z,90.45
2022-08-23T22:10:58.163Z,87.17
2022-08-23T22:14:04.123Z,84.92
2022-08-23T22:17:09.071Z,86.54
2022-08-23T22:20:14.512Z,89.82
2022-08-23T22:23:18.974Z,77.29
2022-08-23T22:26:23.891Z,79.80
2022-08-23T22:29:28.713Z,79.94
2022-08-23T22:32:33.571Z,78.64
2022-08-23T22:35:38.453Z,71.28
2022-08-23T22:38:43.815Z,69.28
2022-08-23T22:41:47.957Z,60.17
2022-08-23T22:44:52.668Z,67.24
2022-08-23T22:47:57.144Z,62.75
2022-08-23T22:51:18.204Z,57.86
2022-08-23T22:54:23.047Z,57.21
2022-08-23T22:57:27.385Z,52.43
2022-08-23T23:00:32.034Z,60.66
2022-08-23T23:03:36.833Z,57.71
2022-08-23T23:06:44.461Z,66.44
2022-08-23T23:09:48.813Z,69.32
2022-08-23T23:12:53.473Z,69.81
2022-08-23T23:16:00.860Z,71.75
2022-08-23T23:19:25.178Z,71.74
2022-08-23T23:22:29.782Z,71.30
2022-08-23T23:25:35.304Z,70.26
2022-08-23T23:28:39.610Z,70.27
2022-08-23T23:31:44.815Z,69.74
2022-08-23T23:34:49.367Z,70.21
2022-08-23T23:37:53.943Z,71.21
2022-08-23T23:40:58.824Z,71.21
2022-08-23T23:44:05.281Z,71.12
2022-08-23T23:47:10.023Z,70.56
2022-08-23T23:50:15.655Z,70.03
2022-08-23T23:53:21.106Z,70.98
2022-08-23T23:56:31.878Z,70.28
2022-08-23T23:59:37.247Z,69.01
